KENW

Kenosha Regional Airport

Kenosha, Wisconsin, USA
METAR KENW 171353Z 33008KT 10SM CLR 00/M06 A3016 RMK AO2 SLP220 T00001061
Observed Flight Rules
Dec-17 @ 13:53 UTC (44 minutes ago) Visual Flight Rules
Wind Visibility Clouds
330° at 8 knots 10 miles
  • Clear skies
Temperatures Readings
Current 0°C / 32°F
Dewpoint -6°C / 21°F
Humidity 64%
Altimeter 30.16" Hg
Pressure 1022 hPa
Elevation 219
METAR KENW 171353Z 33008KT 10SM CLR 00/M06 A3016 RMK AO2 SLP220 T00001061
Observed Flight Rules
Dec-17 @ 13:53 UTC
(44 minutes ago)
VFR
Wind Visibility
330° at 8 knots 10 miles
Clouds
  • Clear skies
Temperature Dewpoint
0°C / 32°F -6°C / 21°F
Humidity Altimeter Pressure
64% 30.16" Hg 1022 hPa